Time;durP1;ratioP1;P1;durP2;ratioP2;P2;SDS_P1;SDS_P2;PMS_P1;PMS_P2;Temp;Humidity;BMP_temperature;BMP_pressure;BME280_temperature;BME280_humidity;BME280_pressure;Samples;Min_cycle;Max_cycle;Signal;HPM_P1;HPM_P2
2021/11/03 00:03:33;;;;;;;0.30;0.30;;;20.90;35.70;21.20;92403.00;;;;10477854;28;45814;-61
2021/11/03 00:08:35;;;;;;;0.40;0.30;;;20.90;35.70;21.20;92415.00;;;;10476784;28;46052;-60
2021/11/03 00:13:36;;;;;;;0.30;0.20;;;20.90;35.80;21.20;92422.00;;;;10461817;28;46261;-60
2021/11/03 00:18:37;;;;;;;0.40;0.25;;;20.90;35.90;21.20;92412.00;;;;10435663;28;45435;-61
2021/11/03 00:23:37;;;;;;;0.40;0.20;;;20.90;35.80;21.20;92412.00;;;;10465387;28;45202;-60
2021/11/03 00:28:38;;;;;;;1.00;0.40;;;20.90;35.90;21.20;92419.00;;;;10476211;28;45546;-60
2021/11/03 00:33:39;;;;;;;0.30;0.20;;;20.90;35.90;21.20;92413.00;;;;10475675;28;46719;-60
2021/11/03 00:38:40;;;;;;;0.40;0.20;;;20.80;35.80;21.20;92427.00;;;;10475245;28;45177;-60
2021/11/03 00:43:41;;;;;;;0.30;0.30;;;20.80;35.90;21.10;92413.00;;;;10475040;28;47264;-60
2021/11/03 00:48:42;;;;;;;0.50;0.35;;;20.80;35.80;21.10;92409.00;;;;10476299;28;45512;-60
2021/11/03 00:53:43;;;;;;;0.50;0.40;;;20.80;35.90;21.10;92429.00;;;;10473640;28;46504;-60
2021/11/03 00:58:43;;;;;;;0.55;0.22;;;20.80;36.00;21.10;92403.00;;;;10474680;28;45804;-60
2021/11/03 01:03:44;;;;;;;0.60;0.22;;;20.80;35.90;21.10;92426.00;;;;10475209;28;46738;-60
2021/11/03 01:08:45;;;;;;;0.32;0.20;;;20.80;36.00;21.10;92385.00;;;;10475252;28;48070;-60
2021/11/03 01:13:46;;;;;;;0.38;0.20;;;20.80;36.10;21.10;92404.00;;;;10466050;28;46395;-60
2021/11/03 01:18:46;;;;;;;0.30;0.22;;;20.80;36.70;21.10;92408.00;;;;10434119;28;45370;-60
2021/11/03 01:23:47;;;;;;;0.32;0.20;;;20.80;36.10;21.10;92390.00;;;;10432725;28;45403;-60
2021/11/03 01:28:48;;;;;;;0.20;0.20;;;20.80;36.10;21.10;92369.00;;;;10431760;28;46196;-60
2021/11/03 01:33:49;;;;;;;0.20;0.20;;;20.80;36.10;21.10;92398.00;;;;10432384;28;46549;-61
2021/11/03 01:38:50;;;;;;;1.02;0.20;;;20.70;36.10;21.10;92404.00;;;;10432253;28;47147;-60
2021/11/03 01:44:02;;;;;;;0.60;0.30;;;20.70;36.10;21.10;92389.00;;;;10432862;28;46154;-60
2021/11/03 01:49:23;;;;;;;0.20;0.17;;;20.80;36.20;21.10;92382.00;;;;10448418;28;45466;-60
2021/11/03 01:54:33;;;;;;;0.45;0.20;;;20.70;36.10;21.00;92355.00;;;;10473229;28;45252;-60
2021/11/03 01:59:39;;;;;;;0.28;0.20;;;20.70;36.20;21.10;92373.00;;;;10470368;28;45237;-61
2021/11/03 02:04:40;;;;;;;0.10;0.10;;;20.70;36.20;21.10;92363.00;;;;10472772;28;45253;-61
2021/11/03 02:09:43;;;;;;;0.20;0.20;;;20.70;36.20;21.00;92349.00;;;;10479454;28;45340;-60
2021/11/03 02:14:44;;;;;;;0.20;0.20;;;20.70;36.30;21.10;92343.00;;;;10461989;28;46438;-60
2021/11/03 02:19:47;;;;;;;0.52;0.30;;;20.70;36.30;21.00;92341.00;;;;10439570;28;45263;-60
2021/11/03 02:25:06;;;;;;;0.35;0.10;;;20.70;36.20;21.00;92336.00;;;;10479139;28;46752;-60
2021/11/03 02:30:10;;;;;;;0.40;0.30;;;20.70;36.30;21.00;92339.00;;;;10480834;28;46533;-59
2021/11/03 02:35:13;;;;;;;0.30;0.20;;;20.70;36.30;21.00;92328.00;;;;10478744;28;45225;-61
2021/11/03 02:40:25;;;;;;;0.20;0.13;;;20.70;36.30;21.00;92322.00;;;;10480233;28;45271;-60
2021/11/03 02:45:48;;;;;;;0.43;0.20;;;20.70;36.30;21.00;92312.00;;;;10480706;28;45277;-60
2021/11/03 02:51:06;;;;;;;0.20;0.20;;;20.70;36.30;21.00;92313.00;;;;10478992;28;45525;-60
2021/11/03 02:56:08;;;;;;;0.13;0.10;;;20.60;36.30;21.00;92295.00;;;;10480041;28;46235;-60
2021/11/03 03:02:00;;;;;;;0.10;0.08;;;20.60;36.30;21.00;92297.00;;;;10479041;28;48314;-59
2021/11/03 03:07:01;;;;;;;0.20;0.17;;;20.70;36.30;21.00;92285.00;;;;10466217;28;45352;-61
2021/11/03 03:12:07;;;;;;;0.35;0.20;;;20.70;36.30;21.00;92288.00;;;;10477499;28;46176;-60
2021/11/03 03:17:13;;;;;;;0.43;0.10;;;20.60;36.30;21.00;92277.00;;;;10439735;28;45312;-59
2021/11/03 03:22:17;;;;;;;0.10;0.10;;;20.70;36.30;21.00;92274.00;;;;10456086;28;45280;-60
2021/11/03 03:27:18;;;;;;;0.20;0.20;;;20.60;36.30;20.90;92257.00;;;;10477841;28;45300;-60
2021/11/03 03:32:19;;;;;;;0.32;0.30;;;20.60;36.30;21.00;92270.00;;;;10478559;28;45112;-60
2021/11/03 03:37:19;;;;;;;0.13;0.10;;;20.70;36.40;21.00;92255.00;;;;10459807;28;47311;-60
2021/11/03 03:42:20;;;;;;;0.10;0.10;;;20.70;36.40;21.00;92261.00;;;;10478043;28;45367;-60
2021/11/03 03:47:21;;;;;;;0.20;0.20;;;20.70;36.40;20.90;92261.00;;;;10477261;28;46192;-60
2021/11/03 03:52:22;;;;;;;0.45;0.20;;;20.60;36.40;20.90;92258.00;;;;10476894;28;46395;-59
2021/11/03 03:57:22;;;;;;;0.10;0.10;;;20.70;36.40;20.90;92237.00;;;;10477975;28;45424;-60
2021/11/03 04:02:23;;;;;;;0.30;0.10;;;20.60;36.40;20.90;92238.00;;;;10476022;28;48327;-61
2021/11/03 04:07:24;;;;;;;0.20;0.08;;;20.60;36.40;20.90;92231.00;;;;10476533;28;45610;-59
2021/11/03 04:12:24;;;;;;;0.17;0.17;;;20.60;36.40;20.90;92224.00;;;;10475717;28;45639;-60
2021/11/03 04:17:26;;;;;;;0.20;0.20;;;20.60;36.40;20.90;92209.00;;;;10437065;28;46554;-60
2021/11/03 04:22:27;;;;;;;0.00;0.00;;;20.60;36.40;20.90;92216.00;;;;10434290;28;45234;-60
2021/11/03 04:27:28;;;;;;;0.25;0.20;;;20.60;36.50;20.90;92195.00;;;;10435364;28;45135;-60
2021/11/03 04:32:28;;;;;;;0.43;0.00;;;20.60;36.40;20.90;92182.00;;;;10434714;28;45246;-60
2021/11/03 04:37:29;;;;;;;0.20;0.13;;;20.60;36.40;20.90;92189.00;;;;10435360;28;46689;-59
2021/11/03 04:42:30;;;;;;;0.52;0.20;;;20.60;36.50;20.90;92179.00;;;;10416807;28;47684;-59
2021/11/03 04:47:30;;;;;;;0.10;0.10;;;20.60;36.60;20.90;92177.00;;;;10438166;28;45295;-61
2021/11/03 04:52:32;;;;;;;0.10;0.10;;;20.60;36.50;20.90;92178.00;;;;10476691;28;46559;-60
2021/11/03 04:57:32;;;;;;;0.22;0.17;;;20.60;36.50;20.90;92176.00;;;;10475030;28;47239;-60
2021/11/03 05:02:33;;;;;;;0.10;0.10;;;20.60;36.60;20.90;92173.00;;;;10475859;28;45367;-60
2021/11/03 05:07:34;;;;;;;0.30;0.17;;;20.60;36.60;20.90;92169.00;;;;10474109;28;45420;-60
2021/11/03 05:12:34;;;;;;;0.43;0.10;;;20.60;36.60;21.00;92150.00;;;;10474419;28;46392;-60
2021/11/03 05:17:35;;;;;;;0.15;0.10;;;20.60;36.60;21.00;92139.00;;;;10433193;28;45306;-60
2021/11/03 05:22:36;;;;;;;0.10;0.10;;;20.70;36.60;21.20;92135.00;;;;10454929;28;46555;-61
2021/11/03 05:27:37;;;;;;;0.20;0.20;;;20.70;36.60;21.30;92141.00;;;;10473610;28;45189;-60
2021/11/03 05:32:37;;;;;;;0.10;0.10;;;20.80;36.60;21.30;92139.00;;;;10473561;28;46428;-60
2021/11/03 05:37:39;;;;;;;0.17;0.10;;;20.90;36.50;21.40;92144.00;;;;10473136;28;45346;-60
2021/11/03 05:42:41;;;;;;;0.20;0.20;;;20.90;36.50;21.40;92159.00;;;;10474030;28;45994;-60
2021/11/03 05:47:42;;;;;;;0.10;0.00;;;21.00;36.50;21.40;92143.00;;;;10475380;28;46616;-60
2021/11/03 05:52:43;;;;;;;0.03;0.03;;;21.00;36.50;21.40;92131.00;;;;10473934;28;45421;-60
2021/11/03 05:57:45;;;;;;;0.20;0.10;;;21.10;36.50;21.50;92149.00;;;;10473223;28;46391;-60
2021/11/03 06:02:46;;;;;;;0.00;0.00;;;21.10;36.40;21.50;92165.00;;;;10474270;28;45469;-60
2021/11/03 06:07:57;;;;;;;0.00;0.00;;;21.10;36.30;21.50;92171.00;;;;10474638;28;46516;-60
2021/11/03 06:12:58;;;;;;;0.30;0.05;;;21.10;36.30;21.60;92165.00;;;;10470361;28;45212;-60
2021/11/03 06:18:00;;;;;;;0.20;0.10;;;21.20;36.30;21.60;92178.00;;;;10431552;28;48242;-60
2021/11/03 06:23:02;;;;;;;0.38;0.10;;;21.20;36.30;21.60;92156.00;;;;10430994;28;45546;-60
2021/11/03 06:28:03;;;;;;;0.32;0.08;;;21.20;36.20;21.70;92150.00;;;;10432801;28;45376;-61
2021/11/03 06:33:06;;;;;;;0.30;0.10;;;21.30;36.20;21.70;92118.00;;;;10430994;28;48209;-60
2021/11/03 06:38:11;;;;;;;0.00;0.00;;;21.30;36.20;21.70;92125.00;;;;10406144;28;47284;-59
2021/11/03 06:43:12;;;;;;;0.10;0.00;;;21.30;36.20;21.70;92139.00;;;;10372818;28;47834;-60
2021/11/03 06:48:13;;;;;;;0.10;0.10;;;21.30;36.10;21.70;92128.00;;;;10408645;28;45267;-60
2021/11/03 06:53:16;;;;;;;0.22;0.10;;;21.30;36.10;21.70;92120.00;;;;10478126;28;45479;-59
2021/11/03 06:58:19;;;;;;;0.10;0.10;;;21.40;36.20;21.70;92120.00;;;;10478527;28;45202;-59
2021/11/03 07:03:22;;;;;;;0.10;0.10;;;21.40;36.10;21.80;92118.00;;;;10478561;28;46233;-60
2021/11/03 07:08:25;;;;;;;0.15;0.10;;;21.40;36.20;21.80;92134.00;;;;10478755;28;45258;-59
2021/11/03 07:13:27;;;;;;;0.20;0.20;;;21.40;36.10;21.80;92144.00;;;;10471273;28;46234;-59
2021/11/03 07:18:29;;;;;;;0.20;0.10;;;21.40;36.10;21.80;92148.00;;;;10427143;28;45335;-59
2021/11/03 07:23:30;;;;;;;0.22;0.10;;;21.40;36.00;21.80;92159.00;;;;10414128;28;48119;-59
2021/11/03 07:28:30;;;;;;;0.70;0.20;;;21.40;36.00;21.80;92135.00;;;;10435582;28;45416;-60
2021/11/03 07:33:32;;;;;;;0.38;0.13;;;21.40;36.00;21.80;92153.00;;;;10435249;28;47891;-60
2021/11/03 07:38:33;;;;;;;0.38;0.20;;;21.50;36.10;21.80;92153.00;;;;10435514;28;45583;-59
2021/11/03 07:43:37;;;;;;;0.20;0.20;;;21.40;36.00;21.80;92172.00;;;;10436743;28;45455;-59
2021/11/03 07:48:39;;;;;;;0.47;0.15;;;21.50;36.00;21.80;92180.00;;;;10448493;28;45308;-67
2021/11/03 07:53:41;;;;;;;1.02;0.32;;;21.50;36.00;21.50;92164.00;;;;10476490;28;45559;-61
2021/11/03 07:58:42;;;;;;;0.70;0.20;;;21.30;35.30;21.50;92155.00;;;;10477033;28;45185;-60
2021/11/03 08:03:43;;;;;;;3.08;0.40;;;21.30;35.20;21.50;92190.00;;;;10458394;28;46820;-59
2021/11/03 08:08:56;;;;;;;2.63;0.30;;;21.20;35.30;21.50;92189.00;;;;10475878;28;46982;-60
2021/11/03 08:13:57;;;;;;;2.22;0.30;;;21.20;35.50;21.50;92191.00;;;;10465242;28;46093;-61
2021/11/03 08:18:58;;;;;;;2.00;0.40;;;21.20;36.10;21.40;92205.00;;;;10435441;28;45453;-60
2021/11/03 08:24:00;;;;;;;0.80;0.32;;;21.20;35.70;21.40;92199.00;;;;10485508;28;47512;-59
2021/11/03 08:29:00;;;;;;;0.57;0.30;;;21.10;35.80;21.40;92205.00;;;;10476047;28;45485;-60
2021/11/03 08:34:01;;;;;;;1.38;0.30;;;21.10;36.40;21.40;92197.00;;;;10476507;28;45259;-61
2021/11/03 08:39:05;;;;;;;0.35;0.30;;;21.10;36.20;21.40;92209.00;;;;10476595;28;45404;-60
2021/11/03 08:44:06;;;;;;;1.08;0.40;;;21.10;36.30;21.40;92213.00;;;;10476540;28;45221;-59
2021/11/03 08:49:07;;;;;;;0.90;0.28;;;21.10;36.40;21.40;92232.00;;;;10476333;28;45438;-59
2021/11/03 08:54:08;;;;;;;0.35;0.28;;;21.10;36.60;21.40;92237.00;;;;10475415;28;46230;-59
2021/11/03 08:59:09;;;;;;;0.63;0.30;;;21.10;36.60;21.40;92231.00;;;;10474736;28;45059;-60
2021/11/03 09:04:10;;;;;;;1.48;0.22;;;21.10;36.60;21.30;92248.00;;;;10474202;28;45427;-60
2021/11/03 09:09:11;;;;;;;0.75;0.50;;;21.00;36.70;21.30;92232.00;;;;10474223;28;45280;-60
2021/11/03 09:14:12;;;;;;;0.60;0.35;;;21.00;36.80;21.30;92241.00;;;;10459678;28;46342;-60
2021/11/03 09:19:13;;;;;;;5.05;0.40;;;21.10;36.90;21.30;92245.00;;;;10432358;28;45190;-60
2021/11/03 09:24:14;;;;;;;0.95;0.20;;;21.10;37.00;21.40;92239.00;;;;10448873;28;48040;-60
2021/11/03 09:29:14;;;;;;;3.03;0.40;;;21.00;37.00;21.30;92236.00;;;;10431851;28;47128;-59
2021/11/03 09:34:15;;;;;;;1.27;0.25;;;21.00;37.20;21.30;92226.00;;;;10431921;28;45312;-59
2021/11/03 09:39:15;;;;;;;0.93;0.35;;;21.00;37.30;21.30;92237.00;;;;10432950;28;45383;-59
2021/11/03 09:44:42;;;;;;;0.43;0.30;;;21.10;37.10;21.30;92268.00;;;;10433214;28;45690;-59
2021/11/03 09:49:49;;;;;;;1.17;0.30;;;21.00;37.00;21.30;92268.00;;;;10454784;28;48008;-59
2021/11/03 09:55:20;;;;;;;0.47;0.28;;;21.10;37.00;21.30;92268.00;;;;10474284;28;45242;-60
2021/11/03 10:00:41;;;;;;;0.82;0.30;;;21.00;37.00;21.30;92280.00;;;;10464308;28;48183;-60
2021/11/03 10:06:38;;;;;;;1.00;0.10;;;21.00;36.80;21.30;92274.00;;;;10473339;28;45372;-59
2021/11/03 10:11:46;;;;;;;0.37;0.30;;;20.90;36.80;21.30;92282.00;;;;10474043;28;45353;-60
2021/11/03 10:16:55;;;;;;;0.50;0.20;;;21.00;36.60;21.30;92263.00;;;;10473219;28;45341;-59
2021/11/03 10:22:05;;;;;;;0.50;0.20;;;20.90;36.50;21.20;92279.00;;;;10473210;28;45573;-59
2021/11/03 10:27:08;;;;;;;2.33;0.35;;;20.90;36.60;21.20;92282.00;;;;10477650;28;48183;-59
2021/11/03 10:32:09;;;;;;;1.35;0.20;;;20.90;36.50;21.20;92283.00;;;;10480454;28;45360;-59
2021/11/03 10:37:15;;;;;;;0.38;0.20;;;20.90;36.60;21.30;92295.00;;;;10479238;28;47139;-60
2021/11/03 10:42:46;;;;;;;;;;;20.90;36.80;21.30;92280.00;;;;10480610;28;45542;-59
2021/11/03 10:48:24;;;;;;;0.43;0.22;;;21.00;36.80;21.20;92297.00;;;;10474598;28;45324;-59
2021/11/03 10:53:29;;;;;;;0.75;0.30;;;20.90;36.90;21.40;92298.00;;;;10479235;28;45568;-59
2021/11/03 10:58:38;;;;;;;0.80;0.20;;;21.00;37.10;21.50;92296.00;;;;10475112;28;47975;-60
2021/11/03 11:03:52;;;;;;;2.58;0.28;;;21.00;37.00;21.60;92318.00;;;;10478658;28;45405;-60
2021/11/03 11:09:11;;;;;;;1.02;0.22;;;21.10;37.00;21.70;92322.00;;;;10461646;28;47153;-60
2021/11/03 11:14:18;;;;;;;2.90;0.20;;;21.20;37.00;21.70;92316.00;;;;10464766;28;46987;-60
2021/11/03 11:19:41;;;;;;;0.75;0.17;;;21.30;36.90;21.70;92315.00;;;;10436888;28;45562;-61
2021/11/03 11:25:02;;;;;;;1.27;0.20;;;21.30;36.90;21.70;92304.00;;;;10476289;28;48167;-59
2021/11/03 11:30:15;;;;;;;1.85;0.10;;;21.30;36.80;21.80;92327.00;;;;10477844;28;45613;-59
2021/11/03 11:35:45;;;;;;;1.10;0.30;;;21.30;36.90;21.80;92338.00;;;;10491367;28;46914;-59
2021/11/03 11:40:56;;;;;;;0.65;0.13;;;21.40;36.90;21.80;92326.00;;;;10436453;28;46871;-61
2021/11/03 11:45:56;;;;;;;0.55;0.10;;;21.40;36.90;21.80;92319.00;;;;10435428;28;46521;-60
2021/11/03 11:51:24;;;;;;;0.52;0.22;;;21.40;36.80;21.80;92325.00;;;;10469380;28;46403;-60
2021/11/03 11:56:33;;;;;;;0.30;0.20;;;21.40;36.80;21.90;92322.00;;;;10393928;28;47069;-60
2021/11/03 12:01:49;;;;;;;0.20;0.13;;;21.40;36.80;21.90;92324.00;;;;10393967;28;45311;-60
2021/11/03 12:06:52;;;;;;;1.25;0.30;;;21.50;36.80;21.90;92317.00;;;;10395701;28;45422;-59
2021/11/03 12:12:02;;;;;;;0.65;0.10;;;21.50;36.80;21.90;92298.00;;;;10478709;22;46171;-61
2021/11/03 12:17:55;;;;;;;0.20;0.10;;;21.50;36.90;21.90;92296.00;;;;10447593;28;45564;-61
2021/11/03 12:23:04;;;;;;;1.50;0.05;;;21.50;36.80;21.90;92294.00;;;;10391837;28;45281;-62
2021/11/03 12:28:11;;;;;;;0.08;0.08;;;21.50;36.80;21.90;92288.00;;;;10420982;28;45973;-61
2021/11/03 12:33:15;;;;;;;0.15;0.15;;;21.50;36.80;21.90;92293.00;;;;10476844;28;45213;-63
2021/11/03 12:38:16;;;;;;;0.28;0.10;;;21.50;36.80;21.90;92272.00;;;;10476800;28;45181;-62
2021/11/03 12:43:20;;;;;;;0.32;0.15;;;21.60;36.80;22.00;92269.00;;;;10476275;28;47058;-61
2021/11/03 12:48:27;;;;;;;0.40;0.10;;;21.60;36.80;22.00;92279.00;;;;10447066;28;46201;-62
2021/11/03 12:53:32;;;;;;;1.98;0.65;;;21.60;36.80;22.00;92260.00;;;;10476052;28;45291;-61
2021/11/03 12:58:49;;;;;;;1.27;0.20;;;21.60;36.80;22.00;92256.00;;;;10474520;28;47211;-62
2021/11/03 13:04:03;;;;;;;0.30;0.00;;;21.60;36.80;22.00;92277.00;;;;10474629;28;47359;-61
2021/11/03 13:09:05;;;;;;;0.32;0.08;;;21.60;36.80;22.00;92267.00;;;;10474034;28;47356;-62
2021/11/03 13:14:24;;;;;;;0.32;0.08;;;21.60;36.80;22.00;92270.00;;;;10474347;28;45203;-62
2021/11/03 13:19:33;;;;;;;0.17;0.10;;;21.60;36.80;22.00;92275.00;;;;10458181;28;47172;-62
2021/11/03 13:24:37;;;;;;;0.40;0.20;;;21.60;36.80;22.00;92271.00;;;;10432355;28;46621;-61
2021/11/03 13:29:52;;;;;;;0.57;0.22;;;21.70;36.80;22.10;92279.00;;;;10433192;28;45460;-62
2021/11/03 13:35:03;;;;;;;0.65;0.20;;;21.60;36.80;22.00;92292.00;;;;10432183;28;45574;-62
2021/11/03 13:40:10;;;;;;;0.13;0.10;;;21.70;36.80;22.10;92312.00;;;;10432743;28;45291;-62
2021/11/03 13:45:28;;;;;;;0.22;0.20;;;21.80;36.90;22.10;92294.00;;;;10433348;28;45308;-61
2021/11/03 13:50:36;;;;;;;0.20;0.20;;;21.70;36.80;22.10;92300.00;;;;10461722;28;45354;-62
2021/11/03 13:56:02;;;;;;;0.30;0.22;;;21.70;36.80;22.10;92298.00;;;;10472294;28;45171;-61
2021/11/03 14:01:10;;;;;;;0.77;0.15;;;21.70;36.70;22.10;92299.00;;;;10477943;28;45481;-61
2021/11/03 14:06:26;;;;;;;0.45;0.25;;;21.70;36.70;22.10;92290.00;;;;10480482;28;47133;-62
2021/11/03 14:11:26;;;;;;;0.20;0.10;;;21.70;36.70;22.10;92281.00;;;;10481198;28;45304;-62
2021/11/03 14:16:48;;;;;;;0.15;0.10;;;21.70;36.60;22.10;92285.00;;;;10481672;28;45426;-62
2021/11/03 14:21:49;;;;;;;0.30;0.20;;;21.70;36.70;22.10;92288.00;;;;10445413;28;45478;-62
2021/11/03 14:26:50;;;;;;;0.47;0.20;;;21.70;36.60;22.10;92286.00;;;;10439427;28;45445;-62
2021/11/03 14:31:53;;;;;;;0.30;0.10;;;21.80;36.60;22.10;92286.00;;;;10438250;28;45435;-61
2021/11/03 14:36:54;;;;;;;0.28;0.20;;;21.80;36.60;22.10;92295.00;;;;10437419;28;45431;-61
2021/11/03 14:41:55;;;;;;;0.10;0.10;;;21.70;36.50;22.10;92314.00;;;;10437088;28;47845;-62
2021/11/03 14:47:04;;;;;;;0.40;0.20;;;21.80;36.60;22.10;92308.00;;;;10436891;28;46441;-61
2021/11/03 14:52:33;;;;;;;0.20;0.10;;;21.80;36.60;22.10;92299.00;;;;10395495;28;45328;-61
2021/11/03 14:57:34;;;;;;;0.20;0.20;;;21.80;36.60;22.10;92302.00;;;;10395439;28;46947;-62
2021/11/03 15:02:45;;;;;;;0.10;0.10;;;21.80;36.60;22.10;92298.00;;;;10395638;28;47926;-62
2021/11/03 15:07:46;;;;;;;0.50;0.20;;;21.80;36.60;22.20;92305.00;;;;10395523;28;45578;-62
2021/11/03 15:12:47;;;;;;;0.70;0.10;;;21.80;36.50;22.20;92308.00;;;;10393689;28;45335;-61
2021/11/03 15:17:50;;;;;;;0.20;0.10;;;21.80;36.50;22.10;92310.00;;;;10397635;28;45349;-61
2021/11/03 15:22:52;;;;;;;0.63;0.30;;;21.80;36.50;22.20;92303.00;;;;10477581;28;45205;-62
2021/11/03 15:27:54;;;;;;;0.30;0.13;;;21.80;36.50;22.20;92303.00;;;;10478713;28;46520;-60
2021/11/03 15:32:55;;;;;;;0.45;0.20;;;21.80;36.50;22.20;92295.00;;;;10478375;28;47333;-61
2021/11/03 15:37:56;;;;;;;0.20;0.20;;;21.80;36.50;22.20;92306.00;;;;10478260;28;47888;-63
2021/11/03 15:43:03;;;;;;;0.95;0.20;;;21.80;36.40;22.20;92314.00;;;;10477972;28;45419;-62
2021/11/03 15:48:15;;;;;;;1.80;0.20;;;21.80;36.40;22.20;92309.00;;;;10469318;28;46050;-62
2021/11/03 15:53:26;;;;;;;0.30;0.30;;;21.80;36.40;22.20;92301.00;;;;10436561;28;45952;-62
2021/11/03 15:58:27;;;;;;;0.50;0.15;;;21.80;36.40;22.20;92316.00;;;;10436118;28;45199;-61
2021/11/03 16:03:57;;;;;;;0.77;0.20;;;21.80;37.10;22.20;92300.00;;;;10432917;28;45670;-63
2021/11/03 16:09:00;;;;;;;1.95;0.40;;;21.80;36.40;22.00;92332.00;;;;10445448;28;46051;-61
2021/11/03 16:14:01;;;;;;;3.60;0.82;;;21.80;36.20;21.90;92334.00;;;;10465299;28;46382;-61
2021/11/03 16:19:04;;;;;;;1.23;0.40;;;21.70;35.90;21.90;92309.00;;;;10439003;28;47000;-61
2021/11/03 16:24:23;;;;;;;5.93;0.50;;;21.60;35.90;21.80;92298.00;;;;10434507;28;45270;-63
2021/11/03 16:29:29;;;;;;;2.47;0.50;;;21.60;35.80;21.80;92288.00;;;;10414034;28;45213;-62
2021/11/03 16:34:30;;;;;;;;;;;21.50;35.80;21.80;92299.00;;;;10435286;28;45645;-62
2021/11/03 16:39:31;;;;;;;2.47;0.40;;;21.50;35.80;21.80;92281.00;;;;10434460;28;47056;-63
2021/11/03 16:44:33;;;;;;;5.30;0.60;;;21.50;35.80;22.00;92284.00;;;;10436215;28;45343;-61
2021/11/03 16:49:34;;;;;;;7.30;0.50;;;21.50;35.90;22.00;92291.00;;;;10433880;28;46124;-62
2021/11/03 16:54:35;;;;;;;0.73;0.32;;;21.60;35.90;22.00;92285.00;;;;10430507;28;45350;-61
2021/11/03 16:59:35;;;;;;;2.85;0.60;;;21.60;35.80;22.10;92299.00;;;;10431270;28;46386;-65
2021/11/03 17:04:39;;;;;;;1.60;0.43;;;21.70;35.90;22.10;92315.00;;;;10434096;28;45474;-63
2021/11/03 17:09:41;;;;;;;3.20;0.40;;;21.70;35.90;22.10;92313.00;;;;10414832;28;48155;-62
2021/11/03 17:14:42;;;;;;;1.33;0.40;;;21.70;35.90;22.10;92291.00;;;;10433393;28;47151;-61
2021/11/03 17:19:43;;;;;;;0.90;0.40;;;21.70;35.90;22.10;92315.00;;;;10450087;28;48171;-63
2021/11/03 17:24:46;;;;;;;3.28;0.40;;;21.80;36.10;22.10;92319.00;;;;10475402;28;46651;-62
2021/11/03 17:30:02;;;;;;;1.55;0.30;;;21.80;36.10;22.20;92338.00;;;;10473619;28;45232;-63
2021/11/03 17:35:19;;;;;;;0.67;0.30;;;21.80;36.10;22.20;92356.00;;;;10473160;28;46421;-62
2021/11/03 17:40:24;;;;;;;1.15;0.30;;;21.80;36.10;22.20;92360.00;;;;10473645;28;45401;-63
2021/11/03 17:45:34;;;;;;;0.50;0.30;;;21.80;36.10;22.20;92368.00;;;;10473689;28;46996;-62
2021/11/03 17:50:39;;;;;;;0.70;0.30;;;21.80;36.10;22.20;92376.00;;;;10418391;28;47076;-63
2021/11/03 17:55:51;;;;;;;0.82;0.28;;;21.80;36.10;22.20;92366.00;;;;10390877;28;45525;-61
2021/11/03 18:01:01;;;;;;;2.28;0.40;;;21.80;36.10;22.20;92363.00;;;;10390971;28;45401;-62
2021/11/03 18:06:02;;;;;;;3.95;0.60;;;21.80;36.10;22.20;92354.00;;;;10391925;28;46439;-63
2021/11/03 18:11:19;;;;;;;1.38;0.40;;;21.80;36.20;22.20;92358.00;;;;10389781;28;46904;-62
2021/11/03 18:16:20;;;;;;;0.35;0.20;;;21.80;36.20;22.20;92367.00;;;;10373739;28;46834;-62
2021/11/03 18:21:23;;;;;;;0.50;0.20;;;21.80;36.10;22.20;92376.00;;;;10452694;28;45434;-63
2021/11/03 18:26:31;;;;;;;0.30;0.30;;;22.00;36.30;22.20;92389.00;;;;10473353;28;46455;-62
2021/11/03 18:31:36;;;;;;;0.75;0.38;;;21.80;36.20;22.20;92393.00;;;;10472292;28;47081;-62
2021/11/03 18:36:37;;;;;;;0.40;0.25;;;21.80;36.20;22.20;92391.00;;;;10473557;28;45655;-61
2021/11/03 18:41:43;;;;;;;0.55;0.30;;;21.80;36.20;22.20;92393.00;;;;10473861;28;45292;-62
2021/11/03 18:46:47;;;;;;;1.40;0.30;;;21.80;36.30;22.20;92394.00;;;;10475846;27;45567;-61
2021/11/03 18:51:55;;;;;;;0.43;0.40;;;21.80;36.30;22.20;92383.00;;;;10480033;28;45546;-63
2021/11/03 18:56:57;;;;;;;1.23;0.22;;;21.80;36.20;22.20;92394.00;;;;10479944;28;45580;-61
2021/11/03 19:01:57;;;;;;;0.60;0.22;;;21.90;36.30;22.20;92382.00;;;;10479437;28;45374;-63
2021/11/03 19:06:59;;;;;;;0.88;0.30;;;21.90;36.20;22.20;92361.00;;;;10478733;28;45314;-63
2021/11/03 19:12:06;;;;;;;1.33;0.20;;;21.80;36.20;22.20;92363.00;;;;10478155;28;48312;-61
2021/11/03 19:17:07;;;;;;;0.50;0.30;;;21.90;36.30;22.20;92371.00;;;;10478766;28;47433;-63
2021/11/03 19:22:39;;;;;;;1.35;0.20;;;21.80;36.20;22.20;92374.00;;;;10479403;28;45170;-61
2021/11/03 19:27:40;;;;;;;1.13;0.20;;;21.80;36.20;22.20;92373.00;;;;10478883;28;47039;-60
2021/11/03 19:32:41;;;;;;;0.38;0.30;;;21.80;36.20;22.20;92352.00;;;;10454332;28;45234;-60
2021/11/03 19:37:53;;;;;;;3.20;0.32;;;21.80;36.20;22.20;92368.00;;;;10434437;28;45587;-60
2021/11/03 19:42:56;;;;;;;0.75;0.30;;;21.80;36.20;22.20;92387.00;;;;10425610;28;48242;-60
2021/11/03 19:47:58;;;;;;;1.80;0.40;;;21.80;36.20;22.20;92383.00;;;;10423462;28;45213;-60
2021/11/03 19:52:59;;;;;;;1.77;0.40;;;21.90;36.20;22.30;92392.00;;;;10426227;28;45274;-61
2021/11/03 19:58:02;;;;;;;1.55;0.30;;;21.90;36.30;22.30;92401.00;;;;10434714;28;46594;-60
2021/11/03 20:03:05;;;;;;;0.50;0.25;;;21.80;36.30;22.30;92415.00;;;;10435416;28;47179;-60
2021/11/03 20:08:17;;;;;;;2.15;0.30;;;21.90;36.30;22.30;92414.00;;;;10435007;28;47159;-60
2021/11/03 20:13:27;;;;;;;0.20;0.20;;;21.90;36.30;22.30;92409.00;;;;10434635;28;47993;-61
2021/11/03 20:18:35;;;;;;;1.17;0.15;;;21.90;36.40;22.30;92421.00;;;;10404342;28;47498;-63
2021/11/03 20:23:36;;;;;;;0.43;0.20;;;21.90;36.40;22.30;92419.00;;;;10471808;28;45409;-61
2021/11/03 20:28:36;;;;;;;0.38;0.25;;;21.90;36.40;22.30;92438.00;;;;10473723;28;46401;-61
2021/11/03 20:33:39;;;;;;;0.20;0.20;;;21.90;36.40;22.30;92446.00;;;;10476396;28;46026;-62
2021/11/03 20:38:49;;;;;;;0.70;0.13;;;21.90;36.40;22.30;92443.00;;;;10475357;28;46391;-62
2021/11/03 20:43:49;;;;;;;1.45;0.22;;;21.90;36.40;22.30;92437.00;;;;10475309;28;47139;-62
2021/11/03 20:48:50;;;;;;;0.57;0.20;;;21.90;36.40;22.30;92458.00;;;;10470347;28;47215;-62
2021/11/03 20:53:51;;;;;;;0.35;0.10;;;22.00;36.50;22.30;92447.00;;;;10473574;28;45831;-62
2021/11/03 20:58:52;;;;;;;0.50;0.30;;;21.90;36.50;22.30;92448.00;;;;10458316;28;46936;-62
2021/11/03 21:03:52;;;;;;;0.73;0.30;;;21.90;36.40;22.30;92440.00;;;;10476676;28;45377;-61
2021/11/03 21:08:54;;;;;;;0.30;0.20;;;21.90;36.50;22.30;92451.00;;;;10473851;28;45208;-61
2021/11/03 21:13:54;;;;;;;0.20;0.20;;;21.90;36.50;22.30;92438.00;;;;10491111;28;47570;-62
2021/11/03 21:18:55;;;;;;;0.10;0.10;;;21.90;36.50;22.30;92443.00;;;;10474743;28;47047;-62
2021/11/03 21:23:56;;;;;;;0.28;0.20;;;21.90;36.50;22.20;92444.00;;;;10473946;28;48372;-61
2021/11/03 21:28:56;;;;;;;0.55;0.30;;;21.90;36.50;22.20;92444.00;;;;10475280;28;45232;-62
2021/11/03 21:33:57;;;;;;;0.55;0.28;;;21.90;36.50;22.10;92432.00;;;;10475545;28;45336;-61
2021/11/03 21:38:58;;;;;;;0.38;0.20;;;21.80;36.50;22.10;92436.00;;;;10475043;28;45155;-60
2021/11/03 21:43:59;;;;;;;0.57;0.20;;;21.80;36.50;22.00;92443.00;;;;10474115;28;46533;-61
2021/11/03 21:48:59;;;;;;;0.75;0.20;;;21.80;36.60;22.00;92425.00;;;;10473405;28;45230;-60
2021/11/03 21:54:00;;;;;;;0.40;0.17;;;21.70;36.50;22.00;92444.00;;;;10474074;28;45407;-60
2021/11/03 21:59:02;;;;;;;0.60;0.20;;;21.70;36.60;21.80;92440.00;;;;10473519;28;45434;-60
2021/11/03 22:04:03;;;;;;;0.38;0.15;;;21.60;36.70;21.90;92432.00;;;;10473745;28;45833;-60
2021/11/03 22:09:04;;;;;;;0.30;0.20;;;21.60;36.80;21.90;92435.00;;;;10472966;28;45184;-61
2021/11/03 22:14:05;;;;;;;0.63;0.10;;;21.60;36.80;21.90;92453.00;;;;10473224;28;46275;-62
2021/11/03 22:19:07;;;;;;;0.38;0.20;;;21.50;36.80;21.80;92460.00;;;;10459891;28;45353;-61
2021/11/03 22:24:08;;;;;;;0.10;0.10;;;21.50;36.70;21.80;92455.00;;;;10437970;28;45246;-61